Time;durP1;ratioP1;P1;durP2;ratioP2;P2;SDS_P1;SDS_P2;PMS_P1;PMS_P2;Temp;Humidity;BMP_temperature;BMP_pressure;BME280_temperature;BME280_humidity;BME280_pressure;Samples;Min_cycle;Max_cycle;Signal;HPM_P1;HPM_P2
2021/09/17 00:01:07;;;;;;;8.67;7.80;;;17.20;79.10;;;;;;5095321;28;20452;-74
2021/09/17 00:03:33;;;;;;;9.80;9.00;;;17.20;79.30;;;;;;5095405;28;20444;-75
2021/09/17 00:06:00;;;;;;;10.33;9.20;;;17.10;79.40;;;;;;5095140;28;20440;-75
2021/09/17 00:08:27;;;;;;;11.53;10.33;;;17.10;79.70;;;;;;5095028;28;20479;-75
2021/09/17 00:10:54;;;;;;;12.03;10.70;;;17.10;80.40;;;;;;5095174;28;20443;-75
2021/09/17 00:13:20;;;;;;;12.13;11.00;;;17.10;80.80;;;;;;5095073;28;20501;-75
2021/09/17 00:15:49;;;;;;;14.27;12.97;;;17.10;81.20;;;;;;5095280;28;20813;-75
2021/09/17 00:18:16;;;;;;;14.97;13.53;;;17.10;81.50;;;;;;5095009;28;20463;-75
2021/09/17 00:20:43;;;;;;;14.00;12.80;;;17.10;82.00;;;;;;5095026;28;20443;-74
2021/09/17 00:23:09;;;;;;;16.03;14.43;;;17.10;82.00;;;;;;5094975;28;20854;-74
2021/09/17 00:25:36;;;;;;;13.37;12.07;;;17.20;82.10;;;;;;5094893;28;20447;-74
2021/09/17 00:28:03;;;;;;;18.63;13.40;;;17.20;82.00;;;;;;5094963;28;20476;-74
2021/09/17 00:30:30;;;;;;;14.40;13.10;;;17.20;81.90;;;;;;5094811;28;20467;-74
2021/09/17 00:32:59;;;;;;;13.50;12.30;;;17.20;81.60;;;;;;5094749;28;20447;-75
2021/09/17 00:35:26;;;;;;;17.13;13.83;;;17.10;81.20;;;;;;5094748;28;20439;-75
2021/09/17 00:37:54;;;;;;;14.90;13.40;;;17.20;81.50;;;;;;5094303;28;20480;-75
2021/09/17 00:40:20;;;;;;;14.73;13.33;;;17.10;81.40;;;;;;5094636;28;20786;-74
2021/09/17 00:42:47;;;;;;;18.37;16.20;;;17.10;81.50;;;;;;5094589;28;20455;-75
2021/09/17 00:45:15;;;;;;;17.53;15.73;;;17.10;81.90;;;;;;5094206;28;20448;-74
2021/09/17 00:47:42;;;;;;;17.70;15.80;;;17.10;82.20;;;;;;5094317;28;20487;-75
2021/09/17 00:50:13;;;;;;;18.90;17.10;;;17.20;82.60;;;;;;5094126;28;20933;-74
2021/09/17 00:52:40;;;;;;;16.07;14.67;;;17.20;82.80;;;;;;5094599;28;20435;-74
2021/09/17 00:55:08;;;;;;;16.87;15.17;;;17.20;82.90;;;;;;5094330;28;20489;-75
2021/09/17 00:57:35;;;;;;;17.27;15.57;;;17.20;82.80;;;;;;5094355;28;20973;-74
2021/09/17 01:00:02;;;;;;;19.00;16.93;;;17.20;82.90;;;;;;5094062;28;20951;-74
2021/09/17 01:02:29;;;;;;;20.57;18.50;;;17.20;83.10;;;;;;5093926;28;20452;-75
2021/09/17 01:04:56;;;;;;;20.50;18.50;;;17.20;83.40;;;;;;5094362;28;20447;-75
2021/09/17 01:07:24;;;;;;;19.85;17.95;;;17.20;83.70;;;;;;5094017;28;20452;-75
2021/09/17 01:09:51;;;;;;;23.77;21.40;;;17.20;83.90;;;;;;5094067;28;20498;-75
2021/09/17 01:12:18;;;;;;;24.10;21.80;;;17.20;84.10;;;;;;5094086;28;20439;-75
2021/09/17 01:14:45;;;;;;;26.80;24.10;;;17.30;84.70;;;;;;5093993;28;20467;-74
2021/09/17 01:17:12;;;;;;;25.83;23.37;;;17.20;84.80;;;;;;5093895;28;20447;-75
2021/09/17 01:19:39;;;;;;;28.20;25.37;;;17.20;85.10;;;;;;5093898;28;20451;-75
2021/09/17 01:22:09;;;;;;;25.60;23.10;;;17.30;85.40;;;;;;5093957;28;20447;-75
2021/09/17 01:24:36;;;;;;;27.47;24.70;;;17.30;85.90;;;;;;5093870;28;20440;-75
2021/09/17 01:27:03;;;;;;;25.90;23.40;;;17.30;86.00;;;;;;5093817;28;20805;-74
2021/09/17 01:29:30;;;;;;;25.07;22.67;;;17.30;86.10;;;;;;5093743;28;20502;-75
2021/09/17 01:31:57;;;;;;;30.27;27.07;;;17.30;86.40;;;;;;5093449;28;20451;-75
2021/09/17 01:34:25;;;;;;;25.27;22.83;;;17.30;86.40;;;;;;5093725;28;20444;-75
2021/09/17 01:36:52;;;;;;;29.47;26.47;;;17.30;86.30;;;;;;5093704;28;20474;-75
2021/09/17 01:39:21;;;;;;;30.53;27.43;;;17.40;86.40;;;;;;5093442;28;20475;-75
2021/09/17 01:41:49;;;;;;;27.53;24.70;;;17.40;86.50;;;;;;5093673;28;20542;-75
2021/09/17 01:44:16;;;;;;;29.00;25.97;;;17.30;86.70;;;;;;5093920;28;20440;-75
2021/09/17 01:46:43;;;;;;;27.43;24.53;;;17.30;87.10;;;;;;5093575;28;20439;-75
2021/09/17 01:49:10;;;;;;;27.87;24.73;;;17.30;87.30;;;;;;5093396;28;20479;-75
2021/09/17 01:51:36;;;;;;;27.67;24.83;;;17.30;87.30;;;;;;5093553;28;20450;-75
2021/09/17 01:54:04;;;;;;;27.87;25.00;;;17.30;87.30;;;;;;5093853;28;20443;-75
2021/09/17 01:56:32;;;;;;;27.50;24.80;;;17.40;87.20;;;;;;5097817;28;20471;-74
2021/09/17 01:58:59;;;;;;;29.43;26.37;;;17.30;87.00;;;;;;5097607;28;20460;-74
2021/09/17 02:01:26;;;;;;;29.20;26.20;;;17.30;87.20;;;;;;5097725;28;20475;-74
2021/09/17 02:03:53;;;;;;;27.33;23.67;;;17.30;87.30;;;;;;5097657;28;20432;-75
2021/09/17 02:06:20;;;;;;;27.17;24.40;;;17.30;87.90;;;;;;5097609;28;20450;-75
2021/09/17 02:08:48;;;;;;;27.13;23.40;;;17.30;88.00;;;;;;5097460;28;20484;-75
2021/09/17 02:11:15;;;;;;;30.70;23.37;;;17.30;88.30;;;;;;5097509;28;20447;-75
2021/09/17 02:13:43;;;;;;;26.67;23.87;;;17.30;88.20;;;;;;5097457;28;20443;-75
2021/09/17 02:16:10;;;;;;;27.33;23.73;;;17.30;88.70;;;;;;5097430;28;20444;-75
2021/09/17 02:18:37;;;;;;;31.00;24.77;;;17.20;89.00;;;;;;5097521;28;20464;-75
2021/09/17 02:21:04;;;;;;;36.20;24.27;;;17.20;89.40;;;;;;5097348;28;20443;-75
2021/09/17 02:23:31;;;;;;;30.00;23.37;;;17.20;89.10;;;;;;5097293;28;20448;-75
2021/09/17 02:25:58;;;;;;;28.00;22.83;;;17.20;89.20;;;;;;5097242;28;20846;-75
2021/09/17 02:28:24;;;;;;;29.70;23.30;;;17.30;89.40;;;;;;5097028;28;20502;-74
2021/09/17 02:30:53;;;;;;;28.13;22.80;;;17.30;89.30;;;;;;5096802;28;20912;-74
2021/09/17 02:33:19;;;;;;;33.43;22.93;;;17.30;89.20;;;;;;5097075;28;20804;-74
2021/09/17 02:35:46;;;;;;;30.13;23.10;;;17.30;89.00;;;;;;5096999;28;20447;-75
2021/09/17 02:38:13;;;;;;;36.33;23.83;;;17.40;89.20;;;;;;5096754;28;20474;-75
2021/09/17 02:40:39;;;;;;;36.00;23.97;;;17.30;88.80;;;;;;5096909;28;20443;-75
2021/09/17 02:43:06;;;;;;;41.33;21.97;;;17.40;88.60;;;;;;5096913;28;20514;-75
2021/09/17 02:45:33;;;;;;;35.47;23.90;;;17.30;88.60;;;;;;5096534;28;20952;-75
2021/09/17 02:48:01;;;;;;;32.47;23.07;;;17.30;88.30;;;;;;5096644;28;20811;-75
2021/09/17 02:50:28;;;;;;;35.87;22.80;;;17.30;88.50;;;;;;5096996;28;20443;-75
2021/09/17 02:52:54;;;;;;;36.73;21.90;;;17.30;89.10;;;;;;5096375;28;20454;-75
2021/09/17 02:55:21;;;;;;;35.40;22.73;;;17.20;89.50;;;;;;5096671;28;20448;-75
2021/09/17 02:57:48;;;;;;;29.80;22.03;;;17.20;89.60;;;;;;5096704;28;20808;-75
2021/09/17 03:00:16;;;;;;;31.70;22.17;;;17.20;89.60;;;;;;5096829;28;20436;-75
2021/09/17 03:02:42;;;;;;;35.63;21.60;;;17.20;89.70;;;;;;5096492;28;20443;-74
2021/09/17 03:05:11;;;;;;;38.40;23.37;;;17.30;89.70;;;;;;5096399;28;20443;-75
2021/09/17 03:07:37;;;;;;;37.07;20.70;;;17.30;89.50;;;;;;5096395;28;20478;-75
2021/09/17 03:10:05;;;;;;;32.80;21.00;;;17.30;89.30;;;;;;5096331;28;20479;-75
2021/09/17 03:12:32;;;;;;;26.20;20.00;;;17.30;89.40;;;;;;5096372;28;20446;-75
2021/09/17 03:14:59;;;;;;;42.20;21.17;;;17.30;89.20;;;;;;5096505;28;20444;-75
2021/09/17 03:17:26;;;;;;;32.10;20.67;;;17.40;89.00;;;;;;5096165;28;20468;-75
2021/09/17 03:19:53;;;;;;;30.17;21.70;;;17.40;88.90;;;;;;5096163;28;20447;-75
2021/09/17 03:22:21;;;;;;;33.80;21.17;;;17.40;89.10;;;;;;5096104;28;20447;-75
2021/09/17 03:24:47;;;;;;;30.30;19.80;;;17.30;89.30;;;;;;5096089;28;20448;-75
2021/09/17 03:27:14;;;;;;;22.37;18.90;;;17.30;89.40;;;;;;5096029;28;20447;-75
2021/09/17 03:29:41;;;;;;;27.23;19.43;;;17.30;89.10;;;;;;5095581;28;20993;-75
2021/09/17 03:32:08;;;;;;;26.37;18.10;;;17.40;89.00;;;;;;5095974;28;20448;-75
2021/09/17 03:34:35;;;;;;;28.90;20.47;;;17.40;88.90;;;;;;5095975;28;20455;-75
2021/09/17 03:37:02;;;;;;;25.60;18.37;;;17.40;88.40;;;;;;5096024;28;20440;-75
2021/09/17 03:39:30;;;;;;;31.43;18.97;;;17.40;88.10;;;;;;5095601;28;20467;-75
2021/09/17 03:41:57;;;;;;;28.77;18.60;;;17.40;87.90;;;;;;5095777;28;20451;-75
2021/09/17 03:44:24;;;;;;;26.47;17.43;;;17.50;87.90;;;;;;5095700;28;20440;-75
2021/09/17 03:46:51;;;;;;;22.83;18.20;;;17.50;87.90;;;;;;5095627;28;20452;-75
2021/09/17 03:49:17;;;;;;;24.70;17.40;;;17.50;88.00;;;;;;5095715;28;20484;-75
2021/09/17 03:51:44;;;;;;;23.53;15.77;;;17.50;87.90;;;;;;5095263;28;20447;-75
2021/09/17 03:54:11;;;;;;;27.00;18.63;;;17.50;87.90;;;;;;5095192;28;20451;-75
2021/09/17 03:56:39;;;;;;;21.23;17.43;;;17.60;87.90;;;;;;5095471;28;20447;-75
2021/09/17 03:59:06;;;;;;;26.63;17.43;;;17.60;88.60;;;;;;5095433;28;20460;-75
2021/09/17 04:01:33;;;;;;;23.63;17.27;;;17.60;88.00;;;;;;5095386;28;20451;-75
2021/09/17 04:03:59;;;;;;;24.50;15.70;;;17.60;88.00;;;;;;5095583;28;20447;-75
2021/09/17 04:06:26;;;;;;;26.33;17.90;;;17.60;87.80;;;;;;5095309;28;20448;-75
2021/09/17 04:08:53;;;;;;;25.83;17.03;;;17.60;87.70;;;;;;5095116;28;20483;-75
2021/09/17 04:11:19;;;;;;;21.73;16.30;;;17.60;87.80;;;;;;5095308;28;20424;-75
2021/09/17 04:13:47;;;;;;;22.37;15.93;;;17.60;87.80;;;;;;5095140;28;20443;-75
2021/09/17 04:16:14;;;;;;;22.40;16.03;;;17.60;87.80;;;;;;5095100;28;20451;-75
2021/09/17 04:18:41;;;;;;;21.00;16.07;;;17.60;88.00;;;;;;5094423;28;20467;-75
2021/09/17 04:21:07;;;;;;;21.23;16.80;;;17.60;88.10;;;;;;5094991;28;20447;-75
2021/09/17 04:23:34;;;;;;;25.83;18.23;;;17.50;88.00;;;;;;5094939;28;20444;-75
2021/09/17 04:26:01;;;;;;;24.10;16.57;;;17.50;88.10;;;;;;5094607;28;20455;-75
2021/09/17 04:28:28;;;;;;;22.77;17.33;;;17.50;88.30;;;;;;5094774;28;20466;-75
2021/09/17 04:30:56;;;;;;;19.10;15.23;;;17.50;88.30;;;;;;5094826;28;20467;-75
2021/09/17 04:33:22;;;;;;;23.90;16.40;;;17.50;88.40;;;;;;5094801;28;20444;-75
2021/09/17 04:35:49;;;;;;;21.97;16.27;;;17.50;88.50;;;;;;5094426;28;20844;-75
2021/09/17 04:38:16;;;;;;;20.90;16.00;;;17.50;88.50;;;;;;5094266;28;20494;-75
2021/09/17 04:40:43;;;;;;;21.60;15.53;;;17.50;88.40;;;;;;5094617;28;20485;-75
2021/09/17 04:43:10;;;;;;;21.17;16.17;;;17.50;88.60;;;;;;5094301;28;20431;-75
2021/09/17 04:45:37;;;;;;;23.73;16.80;;;17.50;88.60;;;;;;5094503;28;20447;-75
2021/09/17 04:48:10;;;;;;;25.13;17.13;;;17.50;88.80;;;;;;5094374;28;20463;-75
2021/09/17 04:50:38;;;;;;;25.50;16.50;;;17.40;88.80;;;;;;5094397;28;20500;-75
2021/09/17 04:53:05;;;;;;;23.97;16.63;;;17.50;89.10;;;;;;5094352;28;20432;-75
2021/09/17 04:55:32;;;;;;;19.23;15.47;;;17.40;89.20;;;;;;5094521;28;20443;-75
2021/09/17 04:58:01;;;;;;;28.07;16.77;;;17.40;89.80;;;;;;5094275;28;20478;-75
2021/09/17 05:00:28;;;;;;;28.90;17.50;;;17.40;89.00;;;;;;5094216;28;20447;-75
2021/09/17 05:02:55;;;;;;;30.67;17.50;;;17.40;88.90;;;;;;5093855;28;20925;-75
2021/09/17 05:05:23;;;;;;;23.10;17.00;;;17.40;89.20;;;;;;5094148;28;20440;-75
2021/09/17 05:07:50;;;;;;;27.37;17.03;;;17.30;89.50;;;;;;5094087;28;20463;-75
2021/09/17 05:10:16;;;;;;;24.40;17.93;;;17.30;89.80;;;;;;5093999;28;20486;-75
2021/09/17 05:12:43;;;;;;;22.93;15.70;;;17.30;90.00;;;;;;5094052;28;20447;-75
2021/09/17 05:15:11;;;;;;;27.63;17.37;;;17.30;90.00;;;;;;5094038;28;20845;-75
2021/09/17 05:17:38;;;;;;;22.80;18.50;;;17.40;90.00;;;;;;5093912;28;20508;-75
2021/09/17 05:20:05;;;;;;;26.23;20.10;;;17.40;89.80;;;;;;5094032;28;20444;-75
2021/09/17 05:22:34;;;;;;;29.57;18.53;;;17.40;89.80;;;;;;5093942;28;20519;-75
2021/09/17 05:25:00;;;;;;;27.13;17.13;;;17.40;89.80;;;;;;5093655;28;20984;-75
2021/09/17 05:27:27;;;;;;;22.63;19.53;;;17.40;90.00;;;;;;5093974;28;20470;-75
2021/09/17 05:29:54;;;;;;;25.60;19.37;;;17.40;89.90;;;;;;5093260;28;20463;-75
2021/09/17 05:32:21;;;;;;;23.73;18.03;;;17.40;89.30;;;;;;5093778;28;20439;-75
2021/09/17 05:34:48;;;;;;;22.30;19.03;;;17.40;89.30;;;;;;5094006;28;20446;-75
2021/09/17 05:37:15;;;;;;;21.03;18.70;;;17.40;89.60;;;;;;5093567;28;20450;-75
2021/09/17 05:39:43;;;;;;;23.43;18.20;;;17.40;90.10;;;;;;5094318;28;20427;-75
2021/09/17 05:42:10;;;;;;;20.50;15.70;;;17.40;89.70;;;;;;5093861;28;20450;-75
2021/09/17 05:44:37;;;;;;;26.67;19.37;;;17.50;89.60;;;;;;5093676;28;20443;-75
2021/09/17 05:47:04;;;;;;;24.10;19.80;;;17.50;89.60;;;;;;5093642;28;20455;-75
2021/09/17 05:49:31;;;;;;;26.73;18.40;;;17.40;89.50;;;;;;5093491;28;20510;-75
2021/09/17 05:51:57;;;;;;;33.90;19.90;;;17.50;89.60;;;;;;5093557;28;20466;-75
2021/09/17 05:54:24;;;;;;;37.20;20.70;;;17.50;89.70;;;;;;5093495;28;20443;-75
2021/09/17 05:56:52;;;;;;;26.27;21.57;;;17.50;89.90;;;;;;5093256;28;20889;-75
2021/09/17 05:59:19;;;;;;;21.17;18.97;;;17.50;90.00;;;;;;5093446;28;20451;-75
2021/09/17 06:01:46;;;;;;;33.73;21.03;;;17.50;90.30;;;;;;5093477;28;20444;-75
2021/09/17 06:04:12;;;;;;;31.20;19.10;;;17.60;89.90;;;;;;5093494;28;20447;-75
2021/09/17 06:06:39;;;;;;;28.80;18.07;;;17.60;89.20;;;;;;5093439;28;20492;-75
2021/09/17 06:09:06;;;;;;;27.67;17.37;;;17.60;88.90;;;;;;5093407;28;20853;-75
2021/09/17 06:11:32;;;;;;;29.70;18.53;;;17.60;89.00;;;;;;5093396;28;20439;-75
2021/09/17 06:14:00;;;;;;;28.50;16.47;;;17.60;89.00;;;;;;5093404;28;20444;-75
2021/09/17 06:16:28;;;;;;;26.77;18.63;;;17.60;89.10;;;;;;5093383;28;20455;-75
2021/09/17 06:19:01;;;;;;;34.53;20.13;;;17.70;88.60;;;;;;5093587;28;20464;-75
2021/09/17 06:21:28;;;;;;;33.90;19.97;;;17.70;87.80;;;;;;5093371;28;20464;-75
2021/09/17 06:23:55;;;;;;;23.33;17.67;;;17.70;87.70;;;;;;5093342;28;20898;-75
2021/09/17 06:26:22;;;;;;;27.77;19.03;;;17.80;87.80;;;;;;5093464;28;20448;-75
2021/09/17 06:28:49;;;;;;;27.90;17.93;;;17.80;87.90;;;;;;5093171;28;20486;-75
2021/09/17 06:31:17;;;;;;;31.13;19.20;;;17.80;87.80;;;;;;5093239;28;20471;-75
2021/09/17 06:33:43;;;;;;;29.07;18.53;;;17.80;87.90;;;;;;5092936;28;20774;-76
2021/09/17 06:36:10;;;;;;;25.63;20.17;;;17.80;87.40;;;;;;5093196;28;20443;-75
2021/09/17 06:38:37;;;;;;;24.40;19.27;;;17.80;87.40;;;;;;5092769;28;20492;-76
2021/09/17 06:41:03;;;;;;;26.00;19.63;;;17.80;87.20;;;;;;5095034;28;20443;-76
2021/09/17 06:43:30;;;;;;;30.23;21.47;;;17.90;87.20;;;;;;5096913;28;20439;-76
2021/09/17 06:45:57;;;;;;;31.63;20.23;;;17.90;87.30;;;;;;5096541;28;20948;-76
2021/09/17 06:48:25;;;;;;;34.27;19.67;;;17.90;87.20;;;;;;5096831;28;20459;-75
2021/09/17 06:50:52;;;;;;;22.93;19.50;;;18.00;87.10;;;;;;5096418;28;20480;-75
2021/09/17 06:53:18;;;;;;;29.93;20.50;;;18.00;86.70;;;;;;5096968;28;20818;-75
2021/09/17 06:55:45;;;;;;;34.67;21.07;;;18.00;86.70;;;;;;5096705;28;20440;-74
2021/09/17 06:58:12;;;;;;;26.70;18.17;;;18.10;86.50;;;;;;5096569;28;20471;-74
2021/09/17 07:00:39;;;;;;;26.43;18.43;;;18.10;86.60;;;;;;5096307;28;20944;-74
2021/09/17 07:03:07;;;;;;;28.93;19.97;;;18.20;86.60;;;;;;5096490;28;20444;-75
2021/09/17 07:05:35;;;;;;;33.80;21.27;;;18.20;86.60;;;;;;5096578;28;20435;-74
2021/09/17 07:08:02;;;;;;;28.20;20.60;;;18.30;86.70;;;;;;5095924;28;20841;-74
2021/09/17 07:10:31;;;;;;;30.07;19.57;;;18.30;86.00;;;;;;5096175;28;20479;-74
2021/09/17 07:12:58;;;;;;;22.73;18.53;;;18.40;86.00;;;;;;5096174;28;20539;-74
2021/09/17 07:15:25;;;;;;;29.00;18.27;;;18.40;85.70;;;;;;5096226;28;20439;-74
2021/09/17 07:17:53;;;;;;;26.87;18.53;;;18.50;85.40;;;;;;5095750;28;20973;-74
2021/09/17 07:20:21;;;;;;;29.40;19.80;;;18.50;85.20;;;;;;5096445;28;20443;-74
2021/09/17 07:22:49;;;;;;;30.27;18.77;;;18.50;84.60;;;;;;5096373;28;20420;-74
2021/09/17 07:25:16;;;;;;;32.37;20.27;;;18.50;84.60;;;;;;5096074;28;20474;-74
2021/09/17 07:27:42;;;;;;;26.87;20.60;;;18.60;84.60;;;;;;5095960;28;20478;-74
2021/09/17 07:30:10;;;;;;;21.03;17.17;;;18.60;84.10;;;;;;5095930;28;20463;-74
2021/09/17 07:32:38;;;;;;;26.77;16.77;;;18.60;84.00;;;;;;5096030;28;20436;-74
2021/09/17 07:35:06;;;;;;;27.50;17.17;;;18.70;84.20;;;;;;5095943;28;20455;-75
2021/09/17 07:37:33;;;;;;;37.10;19.40;;;18.70;83.90;;;;;;5095696;28;20479;-74
2021/09/17 07:40:01;;;;;;;25.03;17.40;;;18.70;83.70;;;;;;5095800;28;20765;-74
2021/09/17 07:42:28;;;;;;;25.13;16.60;;;18.80;83.60;;;;;;5095929;28;20424;-74
2021/09/17 07:44:54;;;;;;;24.07;15.97;;;18.80;83.60;;;;;;5095777;28;20432;-74
2021/09/17 07:47:21;;;;;;;32.90;16.90;;;18.90;83.60;;;;;;5095678;28;20428;-74
2021/09/17 07:49:48;;;;;;;29.37;17.90;;;19.00;83.90;;;;;;5095902;28;20443;-74
2021/09/17 07:52:15;;;;;;;40.17;20.83;;;19.00;83.80;;;;;;5094396;28;20937;-74
2021/09/17 07:54:42;;;;;;;34.23;17.93;;;19.10;83.40;;;;;;5095211;28;20795;-74
2021/09/17 07:57:10;;;;;;;37.63;19.53;;;19.10;82.90;;;;;;5095485;28;20440;-74
2021/09/17 07:59:36;;;;;;;30.90;17.87;;;19.10;82.60;;;;;;5095225;28;20922;-74
2021/09/17 08:02:03;;;;;;;28.87;15.17;;;19.20;82.40;;;;;;5095289;28;20436;-73
2021/09/17 08:04:30;;;;;;;30.53;17.37;;;19.20;82.00;;;;;;5095384;28;20450;-74
2021/09/17 08:06:56;;;;;;;25.93;15.17;;;19.20;81.50;;;;;;5095185;28;20424;-74
2021/09/17 08:09:23;;;;;;;28.33;20.37;;;19.20;81.40;;;;;;5094775;28;20459;-74
2021/09/17 08:11:50;;;;;;;27.73;18.27;;;19.30;81.50;;;;;;5095982;28;20470;-73
2021/09/17 08:14:18;;;;;;;31.63;17.27;;;19.30;81.70;;;;;;5095161;28;20439;-74
2021/09/17 08:16:45;;;;;;;26.17;17.87;;;19.40;82.20;;;;;;5094799;28;20955;-74
2021/09/17 08:19:12;;;;;;;24.97;18.30;;;19.40;82.00;;;;;;5095255;28;20516;-74
2021/09/17 08:21:41;;;;;;;24.67;18.50;;;19.50;81.90;;;;;;5095119;28;20427;-74
2021/09/17 08:24:13;;;;;;;25.30;15.50;;;19.50;81.30;;;;;;5094718;28;20918;-74
2021/09/17 08:26:41;;;;;;;22.43;16.13;;;19.50;81.00;;;;;;5095462;28;20448;-74
2021/09/17 08:29:07;;;;;;;26.13;18.20;;;19.60;81.20;;;;;;5094896;28;20475;-74
2021/09/17 08:31:36;;;;;;;19.57;14.00;;;19.60;80.90;;;;;;5094693;28;20466;-74
2021/09/17 08:34:02;;;;;;;21.97;15.37;;;19.70;80.60;;;;;;5094826;28;20428;-74
2021/09/17 08:36:29;;;;;;;24.60;15.60;;;19.70;80.50;;;;;;5094938;28;20428;-75
2021/09/17 08:38:56;;;;;;;30.07;17.30;;;19.70;80.10;;;;;;5094674;28;20482;-75
2021/09/17 08:41:23;;;;;;;23.30;14.13;;;19.70;80.40;;;;;;5094930;28;20423;-74
2021/09/17 08:43:50;;;;;;;16.53;14.83;;;19.70;80.40;;;;;;5094725;28;20428;-75
2021/09/17 08:46:17;;;;;;;21.23;13.87;;;19.80;80.50;;;;;;5094437;28;20934;-75
2021/09/17 08:48:48;;;;;;;19.73;13.10;;;19.90;80.40;;;;;;5094602;28;20471;-75
2021/09/17 08:51:15;;;;;;;22.77;16.80;;;20.10;79.80;;;;;;5094458;28;20513;-75
2021/09/17 08:53:42;;;;;;;22.40;13.97;;;20.40;80.90;;;;;;5095287;28;20794;-75
2021/09/17 08:56:11;;;;;;;18.43;13.63;;;20.60;78.80;;;;;;5094371;28;20474;-75
2021/09/17 08:58:38;;;;;;;24.20;17.20;;;20.90;77.50;;;;;;5094308;28;20463;-75
2021/09/17 09:01:04;;;;;;;30.33;17.07;;;21.10;75.80;;;;;;5094334;28;20428;-75
2021/09/17 09:03:32;;;;;;;20.17;16.00;;;21.30;76.10;;;;;;5094204;28;20431;-75
2021/09/17 09:06:13;;;;;;;29.40;17.73;;;21.40;76.20;;;;;;5094321;28;20432;-75
2021/09/17 09:08:41;;;;;;;24.60;15.23;;;21.50;75.40;;;;;;5094221;28;20464;-74
2021/09/17 09:11:18;;;;;;;19.83;15.00;;;21.60;74.40;;;;;;5093792;28;20486;-74
2021/09/17 09:13:58;;;;;;;23.43;17.20;;;21.80;73.90;;;;;;5093725;28;20444;-74
2021/09/17 09:16:25;;;;;;;25.60;16.20;;;21.90;72.90;;;;;;5094015;28;20439;-74
2021/09/17 09:18:52;;;;;;;20.53;15.40;;;22.10;71.50;;;;;;5093927;28;20466;-74
2021/09/17 09:21:26;;;;;;;20.60;18.50;;;22.10;71.10;;;;;;5093567;28;20933;-74
2021/09/17 09:24:09;;;;;;;25.93;19.57;;;22.20;70.20;;;;;;5093940;28;20459;-74
2021/09/17 09:26:36;;;;;;;23.20;20.80;;;22.20;68.60;;;;;;5093929;28;20885;-75
2021/09/17 09:29:03;;;;;;;20.80;18.57;;;22.10;67.90;;;;;;5093976;28;20463;-75
2021/09/17 09:31:42;;;;;;;23.67;21.03;;;22.10;68.90;;;;;;5093674;28;20484;-75
2021/09/17 09:34:10;;;;;;;24.97;20.50;;;22.00;68.50;;;;;;5094656;28;20439;-75
2021/09/17 09:36:38;;;;;;;29.70;20.67;;;22.10;68.80;;;;;;5093758;28;20435;-75
2021/09/17 09:39:05;;;;;;;25.17;20.90;;;22.10;69.60;;;;;;5093227;28;20502;-75
2021/09/17 09:41:35;;;;;;;24.57;21.67;;;22.30;69.20;;;;;;5093666;28;20440;-75
2021/09/17 09:44:03;;;;;;;27.23;21.20;;;22.40;68.10;;;;;;5093579;28;20428;-74
2021/09/17 09:46:34;;;;;;;22.67;20.20;;;22.70;67.90;;;;;;5093645;28;20443;-75
2021/09/17 09:49:22;;;;;;;21.67;19.53;;;22.90;65.90;;;;;;5093578;28;20456;-75
2021/09/17 09:51:58;;;;;;;23.10;20.83;;;23.20;65.80;;;;;;5093549;28;20470;-75
2021/09/17 09:54:28;;;;;;;23.47;19.70;;;23.50;65.40;;;;;;5093512;28;20455;-74
2021/09/17 09:56:56;;;;;;;20.53;18.70;;;23.70;63.50;;;;;;5093653;28;20824;-74
2021/09/17 09:59:28;;;;;;;23.77;18.37;;;24.00;63.50;;;;;;5093111;28;20834;-74
2021/09/17 10:01:56;;;;;;;20.10;18.17;;;24.30;61.50;;;;;;5093423;28;20823;-74
2021/09/17 10:04:24;;;;;;;20.23;18.23;;;24.50;62.30;;;;;;5093160;28;20925;-74
2021/09/17 10:07:05;;;;;;;19.17;17.37;;;24.60;59.70;;;;;;5093387;28;20451;-74
2021/09/17 10:09:33;;;;;;;20.30;18.30;;;24.70;60.40;;;;;;5093440;28;20467;-74
2021/09/17 10:12:00;;;;;;;19.03;17.23;;;25.00;58.70;;;;;;5093500;28;20468;-74
2021/09/17 10:14:29;;;;;;;26.33;19.20;;;25.20;58.20;;;;;;5093507;28;20471;-74
2021/09/17 10:16:58;;;;;;;20.40;18.40;;;25.70;57.40;;;;;;5096863;28;20440;-74
2021/09/17 10:19:25;;;;;;;18.17;16.47;;;26.10;55.70;;;;;;5097194;28;20869;-74
2021/09/17 10:21:55;;;;;;;19.03;17.07;;;26.50;55.40;;;;;;5097001;28;20781;-74
2021/09/17 10:25:02;;;;;;;18.63;16.83;;;26.90;53.20;;;;;;5097342;28;20428;-74
2021/09/17 10:27:29;;;;;;;16.93;15.33;;;27.40;51.80;;;;;;5076035;28;20454;-74
2021/09/17 10:30:00;;;;;;;18.93;16.47;;;27.80;51.10;;;;;;5096924;28;20439;-74
2021/09/17 10:32:47;;;;;;;18.30;16.50;;;28.30;50.00;;;;;;5097222;28;20460;-74
2021/09/17 10:35:20;;;;;;;20.73;18.30;;;28.20;47.60;;;;;;5097428;28;20424;-74
2021/09/17 10:38:02;;;;;;;23.53;17.60;;;28.00;48.80;;;;;;5096947;28;20848;-74
2021/09/17 10:40:43;;;;;;;18.93;17.00;;;27.90;48.20;;;;;;5098015;28;20430;-74
2021/09/17 10:43:28;;;;;;;18.33;16.73;;;28.00;49.10;;;;;;5096985;28;20795;-74
2021/09/17 10:45:56;;;;;;;15.37;13.80;;;28.20;47.70;;;;;;5096831;28;20788;-74
2021/09/17 10:48:25;;;;;;;16.53;15.10;;;28.40;47.70;;;;;;5096801;28;20867;-73
2021/09/17 10:50:59;;;;;;;18.37;16.27;;;28.80;47.90;;;;;;5096321;28;20854;-75
2021/09/17 10:54:05;;;;;;;19.17;17.27;;;29.10;46.30;;;;;;5096196;28;20439;-76
2021/09/17 10:57:06;;;;;;;18.23;16.60;;;29.40;45.30;;;;;;5096786;28;20485;-75
2021/09/17 10:59:59;;;;;;;18.77;16.97;;;29.30;44.10;;;;;;5096614;28;20462;-75
2021/09/17 11:02:41;;;;;;;22.33;17.03;;;29.10;45.10;;;;;;5096683;28;20515;-75
2021/09/17 11:05:18;;;;;;;18.43;16.80;;;29.40;44.70;;;;;;5096378;28;20917;-75
2021/09/17 11:07:45;;;;;;;17.30;15.20;;;29.50;43.50;;;;;;5096206;28;20462;-75
2021/09/17 11:10:26;;;;;;;17.27;15.67;;;29.60;44.00;;;;;;5096217;28;20894;-75
2021/09/17 11:13:05;;;;;;;18.43;16.60;;;29.40;44.50;;;;;;5095995;28;21040;-76
2021/09/17 11:15:32;;;;;;;18.60;16.80;;;28.90;44.80;;;;;;5096166;28;20424;-76
2021/09/17 11:18:08;;;;;;;17.43;15.73;;;28.40;45.60;;;;;;5096315;28;20468;-76
2021/09/17 11:20:34;;;;;;;20.23;17.53;;;28.50;46.90;;;;;;5096197;28;20801;-76
2021/09/17 11:23:03;;;;;;;17.60;15.73;;;28.40;47.40;;;;;;5096196;28;20444;-75
2021/09/17 11:25:36;;;;;;;18.47;16.60;;;28.30;46.90;;;;;;5095847;28;20956;-75
2021/09/17 11:28:06;;;;;;;18.53;16.73;;;28.10;47.90;;;;;;5094747;28;20459;-75
2021/09/17 11:30:36;;;;;;;15.77;14.33;;;28.00;48.50;;;;;;5096219;28;20541;-75
2021/09/17 11:33:17;;;;;;;17.43;15.73;;;28.50;47.70;;;;;;5096127;28;20460;-76
2021/09/17 11:35:44;;;;;;;16.47;14.90;;;29.40;45.00;;;;;;5095794;28;21027;-76
2021/09/17 11:38:11;;;;;;;16.77;14.93;;;30.00;43.50;;;;;;5095660;28;20476;-76
2021/09/17 11:40:50;;;;;;;18.03;16.23;;;30.30;43.20;;;;;;5096026;28;20452;-74
2021/09/17 11:43:18;;;;;;;17.30;15.60;;;30.00;41.80;;;;;;5095888;28;20435;-74
2021/09/17 11:45:46;;;;;;;15.00;13.60;;;29.20;43.40;;;;;;5096253;28;20789;-74
2021/09/17 11:48:18;;;;;;;16.87;14.60;;;28.60;45.40;;;;;;5095630;28;20459;-76
2021/09/17 11:50:45;;;;;;;17.10;15.30;;;27.80;46.70;;;;;;5095744;28;20787;-76
2021/09/17 11:53:12;;;;;;;16.57;15.13;;;27.30;48.30;;;;;;5095698;28;20417;-76
2021/09/17 11:55:39;;;;;;;17.33;15.70;;;26.80;48.50;;;;;;5095252;28;20963;-76
2021/09/17 11:58:05;;;;;;;16.63;15.03;;;26.30;49.40;;;;;;5095448;28;20554;-75
2021/09/17 12:00:33;;;;;;;14.00;12.70;;;25.90;50.20;;;;;;5095784;28;20785;-76
2021/09/17 12:03:02;;;;;;;16.87;15.23;;;25.60;51.30;;;;;;5095627;28;20427;-75
2021/09/17 12:05:31;;;;;;;16.93;15.33;;;25.40;52.50;;;;;;5096106;28;20428;-75
2021/09/17 12:07:58;;;;;;;16.33;14.77;;;25.10;53.00;;;;;;5095296;28;20460;-75
2021/09/17 12:10:27;;;;;;;16.33;14.73;;;25.00;52.60;;;;;;5095385;28;20433;-75
2021/09/17 12:13:00;;;;;;;15.27;13.53;;;24.90;54.50;;;;;;5095241;28;20471;-76
2021/09/17 12:15:29;;;;;;;18.90;15.63;;;24.80;53.80;;;;;;5095189;28;20424;-76
2021/09/17 12:17:59;;;;;;;13.17;11.97;;;24.70;54.00;;;;;;5095318;28;20478;-75
2021/09/17 12:20:40;;;;;;;14.33;12.83;;;24.70;54.60;;;;;;5095239;28;20794;-76
2021/09/17 12:23:08;;;;;;;15.23;13.73;;;24.80;55.80;;;;;;5095334;28;20436;-76
2021/09/17 12:25:35;;;;;;;13.83;12.43;;;24.90;54.20;;;;;;5095053;28;20424;-76
2021/09/17 12:28:04;;;;;;;13.77;11.33;;;24.90;53.90;;;;;;5094990;28;20475;-76
2021/09/17 12:30:32;;;;;;;13.37;11.97;;;24.90;53.40;;;;;;5095821;28;20779;-77
2021/09/17 12:33:09;;;;;;;14.73;13.33;;;24.90;53.00;;;;;;5094884;28;20509;-76
2021/09/17 12:35:37;;;;;;;12.37;11.00;;;25.00;52.30;;;;;;5094941;28;20431;-76